createdAt,value
2022-11-28T00:01:36.488Z,83.17
2022-11-28T00:04:05.010Z,83.31
2022-11-28T00:06:32.002Z,83.34
2022-11-28T00:08:59.843Z,83.28
2022-11-28T00:11:27.155Z,82.93
2022-11-28T00:13:54.436Z,82.96
2022-11-28T00:16:22.929Z,83.26
2022-11-28T00:18:50.827Z,83.21
2022-11-28T00:21:17.925Z,83.20
2022-11-28T00:23:45.803Z,83.06
2022-11-28T00:26:40.051Z,83.19
2022-11-28T00:29:08.042Z,83.21
2022-11-28T00:31:42.564Z,83.23
2022-11-28T00:34:12.081Z,82.93
2022-11-28T00:36:39.046Z,83.19
2022-11-28T00:39:06.566Z,83.02
2022-11-28T00:41:36.214Z,83.04
2022-11-28T00:44:03.173Z,82.98
2022-11-28T00:46:30.452Z,82.98
2022-11-28T00:48:58.385Z,83.25
2022-11-28T00:51:29.031Z,83.22
2022-11-28T00:53:57.823Z,83.13
2022-11-28T00:56:27.799Z,83.28
2022-11-28T00:58:56.125Z,83.28
2022-11-28T01:01:27.223Z,82.98
2022-11-28T01:03:56.590Z,83.25
2022-11-28T01:06:29.744Z,83.16
2022-11-28T01:08:58.865Z,83.07
2022-11-28T01:11:26.485Z,83.33
2022-11-28T01:13:58.426Z,83.15
2022-11-28T01:16:25.603Z,83.38
2022-11-28T01:18:52.957Z,83.26
2022-11-28T01:21:20.386Z,83.04
2022-11-28T01:23:47.495Z,83.31
2022-11-28T01:26:20.047Z,83.22
2022-11-28T01:28:47.154Z,83.38
2022-11-28T01:31:20.432Z,82.85
2022-11-28T01:33:47.433Z,83.18
2022-11-28T01:36:15.106Z,83.24
2022-11-28T01:38:42.196Z,83.15
2022-11-28T01:41:09.865Z,83.50
2022-11-28T01:43:37.493Z,83.50
2022-11-28T01:46:06.773Z,83.38
2022-11-28T01:48:38.942Z,83.30
2022-11-28T01:51:07.924Z,83.52
2022-11-28T01:53:37.641Z,83.20
2022-11-28T01:56:14.403Z,83.00
2022-11-28T01:58:44.614Z,83.01
2022-11-28T02:01:12.254Z,83.03
2022-11-28T02:03:47.524Z,83.05
2022-11-28T02:06:17.763Z,83.26
2022-11-28T02:08:44.714Z,83.45
2022-11-28T02:11:30.011Z,83.61
2022-11-28T02:14:18.941Z,83.26
2022-11-28T02:17:16.808Z,83.10
2022-11-28T02:19:46.824Z,83.32
2022-11-28T02:22:24.909Z,83.11
2022-11-28T02:25:04.610Z,83.64
2022-11-28T02:27:38.905Z,83.25
2022-11-28T02:30:24.414Z,83.58
2022-11-28T02:32:57.294Z,83.73
2022-11-28T02:35:34.775Z,83.33
2022-11-28T02:38:23.083Z,83.16
2022-11-28T02:41:07.524Z,83.55
2022-11-28T02:44:02.730Z,83.57
2022-11-28T02:46:37.148Z,83.34
2022-11-28T02:49:31.507Z,83.61
2022-11-28T02:52:15.995Z,83.63
2022-11-28T02:54:44.123Z,83.28
2022-11-28T02:57:11.725Z,83.37
2022-11-28T02:59:38.727Z,83.87
2022-11-28T03:02:30.981Z,83.72
2022-11-28T03:05:16.532Z,83.86
2022-11-28T03:08:20.945Z,83.60
2022-11-28T03:11:14.837Z,83.48
2022-11-28T03:13:58.384Z,83.48
2022-11-28T03:16:29.458Z,83.78
2022-11-28T03:19:20.310Z,83.87
2022-11-28T03:22:10.814Z,83.85
2022-11-28T03:25:03.965Z,83.71
2022-11-28T03:27:42.769Z,83.68
2022-11-28T03:30:15.316Z,83.61
2022-11-28T03:32:42.629Z,84.07
2022-11-28T03:35:14.579Z,83.85
2022-11-28T03:37:47.104Z,83.57
2022-11-28T03:40:20.464Z,83.80
2022-11-28T03:42:58.019Z,83.64
2022-11-28T03:45:27.296Z,83.52
2022-11-28T03:48:20.804Z,83.80
2022-11-28T03:50:53.142Z,83.87
2022-11-28T03:53:26.129Z,83.76
2022-11-28T03:56:01.085Z,84.09
2022-11-28T03:58:52.075Z,84.22
2022-11-28T04:01:33.359Z,83.85
2022-11-28T04:04:23.256Z,84.29
2022-11-28T04:06:53.617Z,84.15
2022-11-28T04:09:41.082Z,84.26
2022-11-28T04:12:13.011Z,83.95
2022-11-28T04:14:46.530Z,84.07
2022-11-28T04:17:36.732Z,83.94
2022-11-28T04:20:16.665Z,84.12
2022-11-28T04:22:53.057Z,84.42
2022-11-28T04:25:22.004Z,84.38
2022-11-28T04:28:11.935Z,84.17
2022-11-28T04:30:40.306Z,84.17
2022-11-28T04:33:10.032Z,84.55
2022-11-28T04:35:41.277Z,84.36
2022-11-28T04:38:10.090Z,84.04
2022-11-28T04:40:45.129Z,84.55
2022-11-28T04:43:19.104Z,84.65
2022-11-28T04:45:50.437Z,84.40
2022-11-28T04:48:18.991Z,84.34
2022-11-28T04:51:23.306Z,84.58
2022-11-28T04:53:55.335Z,84.52
2022-11-28T04:56:26.768Z,84.61
2022-11-28T04:58:54.099Z,84.17
2022-11-28T05:01:29.728Z,84.55
2022-11-28T05:03:57.093Z,84.51
2022-11-28T05:06:29.271Z,84.46
2022-11-28T05:08:56.711Z,84.50
2022-11-28T05:11:23.790Z,84.35
2022-11-28T05:13:50.778Z,84.55
2022-11-28T05:16:18.216Z,84.31
2022-11-28T05:18:45.392Z,84.44
2022-11-28T05:21:13.674Z,84.71
2022-11-28T05:23:42.884Z,84.71
2022-11-28T05:26:15.171Z,84.38
2022-11-28T05:28:46.377Z,84.42
2022-11-28T05:31:14.306Z,84.68
2022-11-28T05:33:41.488Z,84.74
2022-11-28T05:36:13.168Z,84.57
2022-11-28T05:38:41.868Z,84.65
2022-11-28T05:41:09.234Z,84.73
2022-11-28T05:43:36.190Z,84.72
2022-11-28T05:46:06.004Z,84.45
2022-11-28T05:48:33.180Z,84.63
2022-11-28T05:51:00.232Z,84.44
2022-11-28T05:53:27.678Z,84.47
2022-11-28T05:55:54.618Z,84.67
2022-11-28T05:58:21.792Z,84.46
2022-11-28T06:00:48.871Z,84.85
2022-11-28T06:03:15.951Z,84.65
2022-11-28T06:05:44.351Z,84.77
2022-11-28T06:08:13.015Z,84.45
2022-11-28T06:10:40.933Z,84.50
2022-11-28T06:13:08.255Z,84.50
2022-11-28T06:15:38.315Z,84.86
2022-11-28T06:18:06.336Z,84.47
2022-11-28T06:20:35.867Z,84.61
2022-11-28T06:23:02.986Z,84.47
2022-11-28T06:25:29.936Z,84.60
2022-11-28T06:27:57.036Z,84.50
2022-11-28T06:30:23.949Z,84.51
2022-11-28T06:32:50.865Z,84.37
2022-11-28T06:35:17.975Z,84.34
2022-11-28T06:37:44.867Z,84.49
2022-11-28T06:40:12.144Z,84.49
2022-11-28T06:42:39.076Z,84.75
2022-11-28T06:45:06.791Z,84.71
2022-11-28T06:47:33.789Z,84.75
2022-11-28T06:50:00.808Z,84.48
2022-11-28T06:52:28.095Z,84.54
2022-11-28T06:54:55.230Z,84.46
2022-11-28T06:57:22.429Z,84.75
2022-11-28T06:59:50.709Z,84.58
2022-11-28T07:02:17.810Z,84.45
2022-11-28T07:04:45.091Z,84.61
2022-11-28T07:07:16.359Z,84.50
2022-11-28T07:09:44.124Z,84.38
2022-11-28T07:12:11.293Z,84.61
2022-11-28T07:14:38.385Z,84.64
2022-11-28T07:17:05.682Z,84.65
2022-11-28T07:19:32.730Z,84.56
2022-11-28T07:21:59.801Z,84.66
2022-11-28T07:24:27.618Z,84.49
2022-11-28T07:26:54.562Z,84.83
2022-11-28T07:29:21.653Z,84.46
2022-11-28T07:31:48.682Z,84.88
2022-11-28T07:34:15.840Z,84.72
2022-11-28T07:36:43.040Z,84.43
2022-11-28T07:39:12.945Z,84.42
2022-11-28T07:41:39.875Z,84.76
2022-11-28T07:44:06.952Z,84.74
2022-11-28T07:46:34.350Z,84.65
2022-11-28T07:49:02.226Z,84.97
2022-11-28T07:51:31.892Z,84.79
2022-11-28T07:53:59.080Z,84.60
2022-11-28T07:56:39.418Z,84.46
2022-11-28T07:59:12.305Z,84.56
2022-11-28T08:01:39.331Z,84.67
2022-11-28T08:04:08.071Z,84.61
2022-11-28T08:06:40.441Z,84.67
2022-11-28T08:09:08.161Z,84.97
2022-11-28T08:11:35.945Z,84.70
2022-11-28T08:14:03.128Z,84.64
2022-11-28T08:16:30.499Z,84.48
2022-11-28T08:18:57.966Z,84.72
2022-11-28T08:21:27.349Z,84.81
2022-11-28T08:23:55.968Z,84.75
2022-11-28T08:26:29.019Z,85.01
2022-11-28T08:28:58.390Z,84.47
2022-11-28T08:31:28.038Z,84.93
2022-11-28T08:33:57.146Z,84.63
2022-11-28T08:36:24.209Z,84.84
2022-11-28T08:39:09.495Z,84.92
2022-11-28T08:41:38.509Z,84.40
2022-11-28T08:44:05.605Z,84.67
2022-11-28T08:46:32.869Z,84.46
2022-11-28T08:49:04.251Z,84.74
2022-11-28T08:51:31.633Z,84.81
2022-11-28T08:53:59.831Z,84.49
2022-11-28T08:56:27.830Z,84.87
2022-11-28T08:58:55.291Z,84.32
2022-11-28T09:01:24.578Z,84.83
2022-11-28T09:03:52.402Z,84.77
2022-11-28T09:06:20.993Z,84.71
2022-11-28T09:08:48.617Z,84.61
2022-11-28T09:11:17.639Z,84.82
2022-11-28T09:13:45.231Z,84.46
2022-11-28T09:16:12.558Z,85.01
2022-11-28T09:18:39.589Z,84.73
2022-11-28T09:21:11.860Z,84.88
2022-11-28T09:23:41.134Z,84.51
2022-11-28T09:26:13.160Z,84.43
2022-11-28T09:28:39.988Z,84.77
2022-11-28T09:31:07.776Z,84.38
2022-11-28T09:33:35.738Z,84.59
2022-11-28T09:36:08.054Z,84.41
2022-11-28T09:38:35.499Z,84.24
2022-11-28T09:41:03.385Z,84.33
2022-11-28T09:43:35.168Z,84.29
2022-11-28T09:46:03.135Z,84.67
2022-11-28T09:48:35.959Z,84.68
2022-11-28T09:51:23.712Z,84.28
2022-11-28T09:53:59.829Z,84.67
2022-11-28T09:56:27.484Z,84.41
2022-11-28T09:58:59.061Z,84.64
2022-11-28T10:01:41.601Z,84.42
2022-11-28T10:04:31.900Z,84.41
2022-11-28T10:07:38.123Z,84.75
2022-11-28T10:10:35.767Z,84.76
2022-11-28T10:13:13.970Z,84.21
2022-11-28T10:16:05.970Z,84.56
2022-11-28T10:18:52.398Z,84.69
2022-11-28T10:21:39.658Z,84.56
2022-11-28T10:24:50.215Z,84.54
2022-11-28T10:27:22.475Z,84.39
2022-11-28T10:30:01.431Z,84.40
2022-11-28T10:32:54.422Z,84.76
2022-11-28T10:35:30.430Z,84.45
2022-11-28T10:37:57.491Z,84.42
2022-11-28T10:40:33.288Z,84.45
2022-11-28T10:43:10.031Z,84.55
2022-11-28T10:45:52.127Z,84.21
2022-11-28T10:48:40.039Z,84.61
2022-11-28T10:51:07.548Z,84.72
2022-11-28T10:53:38.509Z,84.36
2022-11-28T10:56:18.329Z,84.61
2022-11-28T10:58:52.779Z,84.50
2022-11-28T11:01:20.066Z,84.53
2022-11-28T11:03:48.389Z,84.30
2022-11-28T11:06:15.410Z,84.29
2022-11-28T11:08:42.398Z,84.17
2022-11-28T11:11:29.268Z,84.32
2022-11-28T11:14:02.780Z,84.65
2022-11-28T11:16:56.589Z,84.25
2022-11-28T11:19:24.849Z,84.26
2022-11-28T11:22:21.470Z,84.20
2022-11-28T11:25:13.209Z,84.59
2022-11-28T11:27:51.527Z,84.34
2022-11-28T11:30:38.849Z,84.53
2022-11-28T11:33:07.385Z,84.36
2022-11-28T11:35:36.433Z,84.24
2022-11-28T11:38:21.960Z,84.53
2022-11-28T11:40:50.430Z,84.72
2022-11-28T11:43:31.949Z,84.35
2022-11-28T11:46:13.352Z,84.46
2022-11-28T11:48:43.158Z,84.06
2022-11-28T11:51:25.003Z,84.32
2022-11-28T11:54:20.899Z,84.54
2022-11-28T11:56:53.524Z,84.29
2022-11-28T11:59:31.890Z,84.53
2022-11-28T12:02:24.695Z,84.38
2022-11-28T12:05:00.436Z,84.45
2022-11-28T12:07:43.559Z,84.10
2022-11-28T12:10:13.468Z,84.17
2022-11-28T12:12:42.132Z,84.58
2022-11-28T12:15:17.995Z,84.62
2022-11-28T12:17:58.986Z,84.35
2022-11-28T12:20:39.714Z,84.28
2022-11-28T12:23:31.899Z,84.56
2022-11-28T12:26:05.587Z,84.34
2022-11-28T12:28:58.521Z,84.38
2022-11-28T12:31:53.803Z,84.11
2022-11-28T12:34:45.209Z,84.21
2022-11-28T12:37:55.247Z,84.12
2022-11-28T12:40:33.111Z,84.20
2022-11-28T12:43:14.150Z,84.36
2022-11-28T12:46:13.155Z,83.92
2022-11-28T12:49:18.263Z,84.00
2022-11-28T12:52:17.550Z,84.17
2022-11-28T12:55:12.107Z,84.03
2022-11-28T12:57:39.102Z,84.18
2022-11-28T13:00:13.911Z,84.08
2022-11-28T13:02:50.052Z,83.99
2022-11-28T13:05:28.906Z,83.74
2022-11-28T13:08:08.900Z,84.08
2022-11-28T13:11:01.002Z,83.67
2022-11-28T13:13:33.180Z,83.84
2022-11-28T13:16:14.068Z,83.85
2022-11-28T13:18:47.799Z,83.58
2022-11-28T13:21:32.872Z,83.85
2022-11-28T13:24:21.549Z,83.97
2022-11-28T13:27:22.099Z,83.76
2022-11-28T13:29:56.398Z,83.98
2022-11-28T13:32:46.889Z,83.47
2022-11-28T13:35:18.095Z,83.50
2022-11-28T13:41:35.294Z,83.95
2022-11-28T13:44:08.089Z,84.04
2022-11-28T13:46:35.209Z,83.59
2022-11-28T13:49:14.898Z,83.57
2022-11-28T13:51:42.710Z,83.99
2022-11-28T13:54:21.393Z,83.58
2022-11-28T13:57:09.111Z,83.58
2022-11-28T13:59:36.933Z,83.85
2022-11-28T14:02:06.758Z,83.38
2022-11-28T14:04:33.943Z,83.83
2022-11-28T14:07:07.841Z,83.44
2022-11-28T14:09:44.648Z,83.73
2022-11-28T14:12:21.149Z,83.95
2022-11-28T14:15:23.870Z,83.60
2022-11-28T14:21:33.180Z,83.94
2022-11-28T14:24:15.998Z,83.93
2022-11-28T14:26:44.044Z,83.90
2022-11-28T14:29:32.915Z,83.36
2022-11-28T14:32:28.383Z,83.88
2022-11-28T14:34:50.417Z,83.87
2022-11-28T14:37:21.852Z,83.56
2022-11-28T14:39:50.328Z,83.52
2022-11-28T14:42:44.094Z,83.55
2022-11-28T14:45:43.536Z,83.84
2022-11-28T14:48:29.124Z,83.88
2022-11-28T14:51:01.779Z,84.00
2022-11-28T14:53:39.092Z,84.02
2022-11-28T14:56:24.380Z,83.92
2022-11-28T14:58:53.230Z,83.77
2022-11-28T15:01:40.858Z,83.56
2022-11-28T15:04:46.246Z,83.89
2022-11-28T15:07:39.886Z,83.99
2022-11-28T15:10:19.819Z,83.54
2022-11-28T15:13:26.878Z,83.77
2022-11-28T15:15:54.378Z,84.08
2022-11-28T15:18:22.675Z,83.55
2022-11-28T15:21:05.700Z,83.70
2022-11-28T15:23:35.548Z,83.86
2022-11-28T15:26:03.674Z,83.74
2022-11-28T15:28:34.123Z,84.09
2022-11-28T15:31:04.896Z,83.66
2022-11-28T15:33:32.449Z,83.80
2022-11-28T15:36:12.119Z,83.81
2022-11-28T15:38:42.029Z,83.82
2022-11-28T15:41:09.281Z,83.91
2022-11-28T15:43:42.759Z,83.95
2022-11-28T15:46:31.882Z,83.67
2022-11-28T15:49:01.481Z,84.04
2022-11-28T15:51:30.904Z,83.83
2022-11-28T15:53:58.057Z,83.81
2022-11-28T15:56:25.989Z,84.12
2022-11-28T15:58:53.877Z,84.03
2022-11-28T16:01:28.600Z,83.93
2022-11-28T16:04:21.964Z,84.29
2022-11-28T16:06:53.713Z,84.38
2022-11-28T16:09:20.562Z,84.30
2022-11-28T16:11:52.370Z,84.48
2022-11-28T16:14:22.662Z,84.03
2022-11-28T16:16:50.510Z,84.32
2022-11-28T16:19:26.861Z,83.88
2022-11-28T16:22:00.452Z,84.10
2022-11-28T16:24:36.916Z,83.96
2022-11-28T16:27:06.205Z,84.01
2022-11-28T16:29:35.282Z,84.08
2022-11-28T16:32:26.766Z,83.92
2022-11-28T16:34:55.532Z,84.12
2022-11-28T16:37:27.111Z,84.32
2022-11-28T16:40:17.201Z,84.27
2022-11-28T16:42:55.648Z,84.41
2022-11-28T16:45:28.034Z,84.00
2022-11-28T16:48:01.201Z,84.25
2022-11-28T16:50:28.819Z,84.52
2022-11-28T16:52:57.970Z,84.44
2022-11-28T16:55:31.880Z,84.43
2022-11-28T16:58:10.334Z,84.48
2022-11-28T17:00:39.408Z,84.17
2022-11-28T17:03:10.330Z,84.20
2022-11-28T17:05:39.976Z,84.35
2022-11-28T17:08:08.639Z,84.42
2022-11-28T17:10:37.602Z,84.37
2022-11-28T17:13:05.008Z,84.20
2022-11-28T17:15:32.025Z,84.48
2022-11-28T17:17:59.570Z,84.63
2022-11-28T17:20:26.975Z,84.13
2022-11-28T17:22:56.703Z,84.48
2022-11-28T17:25:23.730Z,84.20
2022-11-28T17:27:50.830Z,84.45
2022-11-28T17:30:19.471Z,84.43
2022-11-28T17:32:52.006Z,84.43
2022-11-28T17:35:23.965Z,84.13
2022-11-28T17:37:51.159Z,84.16
2022-11-28T17:40:37.018Z,84.68
2022-11-28T17:43:04.495Z,84.01
2022-11-28T17:45:34.589Z,84.24
2022-11-28T17:48:01.860Z,84.31
2022-11-28T17:50:30.359Z,84.05
2022-11-28T17:52:57.808Z,84.29
2022-11-28T17:55:24.991Z,84.55
2022-11-28T17:57:53.941Z,84.48
2022-11-28T18:00:21.238Z,84.59
2022-11-28T18:02:48.348Z,84.43
2022-11-28T18:05:15.902Z,84.28
2022-11-28T18:07:43.043Z,84.80
2022-11-28T18:10:12.519Z,84.59
2022-11-28T18:12:39.698Z,84.39
2022-11-28T18:15:10.387Z,84.76
2022-11-28T18:17:38.389Z,84.59
2022-11-28T18:20:06.377Z,84.67
2022-11-28T18:22:33.717Z,84.49
2022-11-28T18:25:00.889Z,84.35
2022-11-28T18:27:28.060Z,84.29
2022-11-28T18:29:55.187Z,84.25
2022-11-28T18:32:23.184Z,84.72
2022-11-28T18:34:50.154Z,84.66
2022-11-28T18:37:17.571Z,84.64
2022-11-28T18:39:45.983Z,84.31
2022-11-28T18:42:13.998Z,84.58
2022-11-28T18:44:41.135Z,84.24
2022-11-28T18:47:09.399Z,84.42
2022-11-28T18:49:36.580Z,84.29
2022-11-28T18:52:03.788Z,84.55
2022-11-28T18:54:32.511Z,84.33
2022-11-28T18:57:00.616Z,84.86
2022-11-28T18:59:28.697Z,84.42
2022-11-28T19:01:56.034Z,84.36
2022-11-28T19:04:23.762Z,84.63
2022-11-28T19:06:50.946Z,84.57
2022-11-28T19:09:19.057Z,84.17
2022-11-28T19:11:47.436Z,84.63
2022-11-28T19:14:18.788Z,84.62
2022-11-28T19:17:16.248Z,84.46
2022-11-28T19:19:44.998Z,84.83
2022-11-28T19:22:12.364Z,84.31
2022-11-28T19:24:39.449Z,84.64
2022-11-28T19:27:12.518Z,84.54
2022-11-28T19:29:42.159Z,84.38
2022-11-28T19:32:09.755Z,84.38
2022-11-28T19:34:36.946Z,84.63
2022-11-28T19:37:04.029Z,84.54
2022-11-28T19:39:31.253Z,84.27
2022-11-28T19:42:00.058Z,84.63
2022-11-28T19:44:29.353Z,84.45
2022-11-28T19:46:56.648Z,84.75
2022-11-28T19:49:24.964Z,84.68
2022-11-28T19:51:54.552Z,84.53
2022-11-28T19:54:22.937Z,84.57
2022-11-28T19:56:53.033Z,84.69
2022-11-28T19:59:22.921Z,84.47
2022-11-28T20:01:53.847Z,84.82
2022-11-28T20:04:22.709Z,84.28
2022-11-28T20:06:49.838Z,84.35
2022-11-28T20:09:17.351Z,84.60
2022-11-28T20:11:44.383Z,84.18
2022-11-28T20:14:13.861Z,84.71
2022-11-28T20:16:41.249Z,84.31
2022-11-28T20:19:10.641Z,84.33
2022-11-28T20:21:37.988Z,84.55
2022-11-28T20:24:07.593Z,84.41
2022-11-28T20:26:39.233Z,84.42
2022-11-28T20:29:07.492Z,84.39
2022-11-28T20:31:37.573Z,84.17
2022-11-28T20:34:06.682Z,84.27
2022-11-28T20:36:33.978Z,84.60
2022-11-28T20:39:01.500Z,84.29
2022-11-28T20:41:29.327Z,84.46
2022-11-28T20:43:56.955Z,84.13
2022-11-28T20:46:30.380Z,84.25
2022-11-28T20:48:59.712Z,83.99
2022-11-28T20:51:28.958Z,84.01
2022-11-28T20:53:57.499Z,84.35
2022-11-28T20:56:26.856Z,84.09
2022-11-28T20:58:55.607Z,84.06
2022-11-28T21:01:25.036Z,84.21
2022-11-28T21:03:52.574Z,84.09
2022-11-28T21:06:19.848Z,84.32
2022-11-28T21:08:47.101Z,84.14
2022-11-28T21:11:36.963Z,84.34
2022-11-28T21:14:06.388Z,84.29
2022-11-28T21:16:33.912Z,84.27
2022-11-28T21:19:08.996Z,83.91
2022-11-28T21:21:38.223Z,84.15
2022-11-28T21:24:11.094Z,84.15
2022-11-28T21:26:42.447Z,84.11
2022-11-28T21:29:13.302Z,84.09
2022-11-28T21:31:43.393Z,84.46
2022-11-28T21:34:14.644Z,84.53
2022-11-28T21:36:42.105Z,84.59
2022-11-28T21:39:12.824Z,84.10
2022-11-28T21:41:39.891Z,84.27
2022-11-28T21:44:07.558Z,84.11
2022-11-28T21:46:34.616Z,84.11
2022-11-28T21:49:02.103Z,84.09
2022-11-28T21:51:29.153Z,84.24
2022-11-28T21:53:57.781Z,83.89
2022-11-28T21:56:25.783Z,84.01
2022-11-28T21:58:54.646Z,84.21
2022-11-28T22:01:24.436Z,83.96
2022-11-28T22:03:53.560Z,84.15
2022-11-28T22:06:24.928Z,84.00
2022-11-28T22:08:53.209Z,84.31
2022-11-28T22:11:21.685Z,84.12
2022-11-28T22:13:49.170Z,83.83
2022-11-28T22:16:20.154Z,84.22
2022-11-28T22:18:49.714Z,84.17
2022-11-28T22:24:05.842Z,84.42
2022-11-28T22:26:33.059Z,84.15
2022-11-28T22:29:01.097Z,84.39
2022-11-28T22:31:28.446Z,84.22
2022-11-28T22:33:55.989Z,84.40
2022-11-28T22:36:23.760Z,83.97
2022-11-28T22:38:56.934Z,84.38
2022-11-28T22:41:28.766Z,84.10
2022-11-28T22:44:02.168Z,84.01
2022-11-28T22:46:31.525Z,84.12
2022-11-28T22:49:02.844Z,83.94
2022-11-28T22:51:31.036Z,84.39
2022-11-28T22:54:00.008Z,84.43
2022-11-28T22:56:29.161Z,84.04
2022-11-28T22:58:57.850Z,84.59
2022-11-28T23:01:27.694Z,84.15
2022-11-28T23:03:55.841Z,84.16
2022-11-28T23:06:28.898Z,84.36
2022-11-28T23:08:57.624Z,83.93
2022-11-28T23:11:28.726Z,84.03
2022-11-28T23:13:56.480Z,84.26
2022-11-28T23:16:31.893Z,83.83
2022-11-28T23:19:01.847Z,83.90
2022-11-28T23:21:31.582Z,84.47
2022-11-28T23:23:58.983Z,84.40
2022-11-28T23:26:28.785Z,84.21
2022-11-28T23:28:58.244Z,84.15
2022-11-28T23:31:28.009Z,84.30
2022-11-28T23:33:56.555Z,84.56
2022-11-28T23:36:40.104Z,84.21
2022-11-28T23:39:27.368Z,84.27
2022-11-28T23:42:03.291Z,84.24
2022-11-28T23:44:30.303Z,84.18
2022-11-28T23:46:57.346Z,84.16
2022-11-28T23:49:24.363Z,84.12
2022-11-28T23:51:51.298Z,84.51
2022-11-28T23:54:18.779Z,83.97
2022-11-28T23:56:45.883Z,84.16
2022-11-28T23:59:13.410Z,84.36
